createdAt,value
2018-09-29T00:01:26.906Z,99.90
2018-09-29T00:03:55.393Z,99.90
2018-09-29T00:06:23.909Z,99.90
2018-09-29T00:08:52.368Z,99.90
2018-09-29T00:11:20.864Z,99.90
2018-09-29T00:13:49.438Z,99.90
2018-09-29T00:16:17.940Z,99.90
2018-09-29T00:18:46.386Z,99.90
2018-09-29T00:21:14.987Z,99.90
2018-09-29T00:23:43.429Z,99.90
2018-09-29T00:26:11.909Z,99.90
2018-09-29T00:28:40.357Z,99.90
2018-09-29T00:31:08.895Z,99.90
2018-09-29T00:33:37.689Z,99.90
2018-09-29T00:36:06.398Z,99.90
2018-09-29T00:38:34.900Z,99.90
2018-09-29T00:41:03.354Z,99.90
2018-09-29T00:43:31.863Z,99.90
2018-09-29T00:46:00.330Z,99.90
2018-09-29T00:48:28.827Z,99.90
2018-09-29T00:50:57.274Z,99.90
2018-09-29T00:53:25.794Z,99.90
2018-09-29T00:55:54.358Z,99.90
2018-09-29T00:58:22.847Z,99.90
2018-09-29T01:00:51.344Z,99.90
2018-09-29T01:03:19.811Z,99.90
2018-09-29T01:05:48.373Z,99.90
2018-09-29T01:08:16.915Z,99.90
2018-09-29T01:10:45.397Z,99.90
2018-09-29T01:13:13.835Z,99.90
2018-09-29T01:15:42.285Z,99.90
2018-09-29T01:18:10.729Z,99.90
2018-09-29T01:20:39.210Z,99.90
2018-09-29T01:23:07.677Z,99.90
2018-09-29T01:25:36.224Z,99.90
2018-09-29T01:28:05.017Z,99.90
2018-09-29T01:30:33.530Z,99.90
2018-09-29T01:33:01.985Z,99.90
2018-09-29T01:35:30.460Z,99.90
2018-09-29T01:37:58.906Z,99.90
2018-09-29T01:40:27.353Z,99.90
2018-09-29T01:42:55.840Z,99.90
2018-09-29T01:45:24.357Z,99.90
2018-09-29T01:47:52.849Z,99.90
2018-09-29T01:50:21.469Z,99.90
2018-09-29T01:52:50.832Z,99.90
2018-09-29T01:55:19.334Z,99.90
2018-09-29T01:57:47.760Z,99.90
2018-09-29T02:00:16.198Z,99.90
2018-09-29T02:02:44.692Z,99.90
2018-09-29T02:05:13.189Z,99.90
2018-09-29T02:07:41.696Z,99.90
2018-09-29T02:10:10.155Z,99.90
2018-09-29T02:12:38.645Z,99.90
2018-09-29T02:15:07.189Z,99.90
2018-09-29T02:17:35.654Z,99.90
2018-09-29T02:20:04.167Z,99.90
2018-09-29T02:22:32.625Z,99.90
2018-09-29T02:25:01.629Z,99.90
2018-09-29T02:27:30.094Z,99.90
2018-09-29T02:29:58.589Z,99.90
2018-09-29T02:32:27.093Z,99.90
2018-09-29T02:34:55.552Z,99.90
2018-09-29T02:37:24.149Z,99.90
2018-09-29T02:39:52.646Z,99.90
2018-09-29T02:42:21.173Z,99.90
2018-09-29T02:44:49.690Z,99.90
2018-09-29T02:47:18.221Z,99.90
2018-09-29T02:49:46.717Z,99.90
2018-09-29T02:52:15.209Z,99.90
2018-09-29T02:54:43.693Z,99.90
2018-09-29T02:57:12.174Z,99.90
2018-09-29T02:59:40.656Z,99.90
2018-09-29T03:02:09.116Z,99.90
2018-09-29T03:04:37.597Z,99.90
2018-09-29T03:07:06.184Z,99.90
2018-09-29T03:09:34.622Z,99.90
2018-09-29T03:12:03.200Z,99.90
2018-09-29T03:14:31.683Z,99.90
2018-09-29T03:17:00.264Z,99.90
2018-09-29T03:19:28.719Z,99.90
2018-09-29T03:21:57.169Z,99.90
2018-09-29T03:24:25.642Z,99.90
2018-09-29T03:26:54.161Z,99.90
2018-09-29T03:29:22.620Z,99.90
2018-09-29T03:31:51.228Z,99.90
2018-09-29T03:34:19.605Z,99.90
2018-09-29T03:36:48.054Z,99.90
2018-09-29T03:39:16.521Z,99.90
2018-09-29T03:41:44.978Z,99.90
2018-09-29T03:44:13.474Z,99.90
2018-09-29T03:46:41.966Z,99.90
2018-09-29T03:49:10.537Z,99.90
2018-09-29T03:51:38.994Z,99.90
2018-09-29T03:54:07.482Z,99.90
2018-09-29T03:56:35.981Z,99.90
2018-09-29T03:59:04.526Z,99.90
2018-09-29T04:01:33.079Z,99.90
2018-09-29T04:04:01.525Z,99.90
2018-09-29T04:06:30.012Z,99.90
2018-09-29T04:08:58.485Z,99.90
2018-09-29T04:11:26.964Z,99.90
2018-09-29T04:13:55.457Z,99.90
2018-09-29T04:16:23.913Z,99.90
2018-09-29T04:18:52.362Z,99.90
2018-09-29T04:21:20.814Z,99.90
2018-09-29T04:23:49.317Z,99.90
2018-09-29T04:26:17.849Z,99.90
2018-09-29T04:28:46.303Z,99.90
2018-09-29T04:31:14.762Z,99.90
2018-09-29T04:33:43.238Z,99.90
2018-09-29T04:36:11.685Z,99.90
2018-09-29T04:38:40.146Z,99.90
2018-09-29T04:41:08.681Z,99.90
2018-09-29T04:43:37.125Z,99.90
2018-09-29T04:46:05.777Z,99.90
2018-09-29T04:48:34.229Z,99.90
2018-09-29T04:51:02.677Z,99.90
2018-09-29T04:53:31.154Z,99.90
2018-09-29T04:55:59.598Z,99.90
2018-09-29T04:58:28.053Z,99.90
2018-09-29T05:00:56.541Z,99.90
2018-09-29T05:03:25.075Z,99.90
2018-09-29T05:05:53.533Z,99.90
2018-09-29T05:08:21.989Z,99.90
2018-09-29T05:10:50.460Z,99.90
2018-09-29T05:13:18.953Z,99.90
2018-09-29T05:15:47.459Z,99.90
2018-09-29T05:18:16.110Z,99.90
2018-09-29T05:20:44.658Z,99.90
2018-09-29T05:23:13.243Z,99.90
2018-09-29T05:25:41.786Z,99.90
2018-09-29T05:28:10.331Z,99.90
2018-09-29T05:30:38.817Z,99.90
2018-09-29T05:33:07.316Z,99.90
2018-09-29T05:35:35.820Z,99.90
2018-09-29T05:38:04.292Z,99.90
2018-09-29T05:40:32.868Z,99.90
2018-09-29T05:43:01.379Z,99.90
2018-09-29T05:45:29.817Z,99.90
2018-09-29T05:47:58.286Z,99.90
2018-09-29T05:50:27.018Z,99.90
2018-09-29T05:52:55.479Z,99.90
2018-09-29T05:55:23.974Z,99.90
2018-09-29T05:57:52.499Z,99.90
2018-09-29T06:00:21.079Z,99.90
2018-09-29T06:02:49.439Z,99.90
2018-09-29T06:05:17.932Z,99.90
2018-09-29T06:07:46.433Z,99.90
2018-09-29T06:10:15.051Z,99.90
2018-09-29T06:12:43.522Z,99.90
2018-09-29T06:15:11.972Z,99.90
2018-09-29T06:17:40.413Z,99.90
2018-09-29T06:20:08.922Z,99.90
2018-09-29T06:22:37.469Z,99.90
2018-09-29T06:25:06.071Z,99.90
2018-09-29T06:27:34.529Z,99.90
2018-09-29T06:30:04.101Z,99.90
2018-09-29T06:32:33.194Z,99.90
2018-09-29T06:35:01.691Z,99.90
2018-09-29T06:37:31.206Z,99.90
2018-09-29T06:39:59.709Z,99.90
2018-09-29T06:42:28.359Z,99.90
2018-09-29T06:44:56.984Z,99.90
2018-09-29T06:47:25.565Z,99.90
2018-09-29T06:49:54.076Z,99.90
2018-09-29T06:52:23.411Z,99.90
2018-09-29T06:54:52.381Z,99.90
2018-09-29T06:57:20.854Z,99.90
2018-09-29T06:59:49.322Z,99.90
2018-09-29T07:02:17.978Z,99.90
2018-09-29T07:04:46.431Z,99.90
2018-09-29T07:07:14.945Z,99.90
2018-09-29T07:09:43.417Z,99.90
2018-09-29T07:12:11.898Z,99.90
2018-09-29T07:14:40.363Z,99.90
2018-09-29T07:17:08.818Z,99.90
2018-09-29T07:19:37.281Z,99.90
2018-09-29T07:22:05.819Z,99.90
2018-09-29T07:24:34.353Z,99.90
2018-09-29T07:27:02.815Z,99.90
2018-09-29T07:29:31.351Z,99.90
2018-09-29T07:31:59.798Z,99.90
2018-09-29T07:34:28.244Z,99.90
2018-09-29T07:36:56.694Z,99.90
2018-09-29T07:39:25.177Z,99.90
2018-09-29T07:41:55.070Z,99.90
2018-09-29T07:44:23.674Z,99.90
2018-09-29T07:46:52.166Z,99.90
2018-09-29T07:49:20.964Z,99.90
2018-09-29T07:51:49.449Z,99.90
2018-09-29T07:54:18.235Z,99.90
2018-09-29T07:56:47.158Z,99.90
2018-09-29T07:59:17.520Z,99.90
2018-09-29T08:01:46.126Z,99.90
2018-09-29T08:04:15.010Z,99.90
2018-09-29T08:06:43.588Z,99.90
2018-09-29T08:09:12.063Z,99.90
2018-09-29T08:11:40.501Z,99.90
2018-09-29T08:14:09.679Z,99.90
2018-09-29T08:16:38.130Z,99.90
2018-09-29T08:19:07.817Z,99.90
2018-09-29T08:21:37.122Z,99.90
2018-09-29T08:24:05.565Z,99.90
2018-09-29T08:26:33.993Z,99.90
2018-09-29T08:29:02.593Z,99.90
2018-09-29T08:31:32.330Z,99.90
2018-09-29T08:34:00.762Z,99.90
2018-09-29T08:36:30.174Z,99.90
2018-09-29T08:38:58.739Z,99.90
2018-09-29T08:41:27.209Z,99.90
2018-09-29T08:43:55.695Z,99.90
2018-09-29T08:46:24.266Z,99.90
2018-09-29T08:48:52.708Z,99.90
2018-09-29T08:51:21.193Z,99.90
2018-09-29T08:53:49.989Z,99.90
2018-09-29T08:56:18.493Z,99.90
2018-09-29T08:58:46.954Z,99.90
2018-09-29T09:01:15.441Z,99.90
2018-09-29T09:03:44.169Z,99.90
2018-09-29T09:06:12.725Z,99.90
2018-09-29T09:08:41.176Z,99.90
2018-09-29T09:11:09.618Z,99.90
2018-09-29T09:13:38.151Z,99.90
2018-09-29T09:16:06.661Z,99.90
2018-09-29T09:18:35.096Z,99.90
2018-09-29T09:21:03.884Z,99.90
2018-09-29T09:23:32.365Z,99.90
2018-09-29T09:26:00.862Z,99.90
2018-09-29T09:28:29.390Z,99.90
2018-09-29T09:30:57.890Z,99.90
2018-09-29T09:33:26.325Z,99.90
2018-09-29T09:35:54.803Z,99.90
2018-09-29T09:38:23.239Z,99.90
2018-09-29T09:40:51.720Z,99.80
2018-09-29T09:43:20.169Z,99.50
2018-09-29T09:45:48.695Z,99.20
2018-09-29T09:48:17.148Z,99.50
2018-09-29T09:50:45.816Z,98.70
2018-09-29T09:53:14.337Z,99.40
2018-09-29T09:55:42.756Z,99.60
2018-09-29T09:58:11.258Z,98.90
2018-09-29T10:00:45.213Z,98.50
2018-09-29T10:03:19.182Z,98.70
2018-09-29T10:05:47.699Z,97.70
2018-09-29T10:08:16.849Z,97.50
2018-09-29T10:10:45.334Z,97.30
2018-09-29T10:13:13.848Z,96.80
2018-09-29T10:15:42.562Z,96.80
2018-09-29T10:18:11.061Z,97.00
2018-09-29T10:20:39.516Z,97.00
2018-09-29T10:23:08.025Z,97.50
2018-09-29T10:25:36.621Z,97.70
2018-09-29T10:28:05.221Z,96.20
2018-09-29T10:30:33.745Z,96.80
2018-09-29T10:33:02.206Z,96.50
2018-09-29T10:35:30.717Z,97.30
2018-09-29T10:37:59.679Z,96.50
2018-09-29T10:40:28.131Z,96.70
2018-09-29T10:42:56.573Z,95.00
2018-09-29T10:45:25.039Z,94.50
2018-09-29T10:47:53.529Z,94.90
2018-09-29T10:50:21.995Z,95.00
2018-09-29T10:52:50.450Z,95.90
2018-09-29T10:55:19.016Z,96.20
2018-09-29T10:57:47.497Z,94.90
2018-09-29T11:00:16.002Z,94.00
2018-09-29T11:02:44.497Z,94.10
2018-09-29T11:05:19.524Z,93.40
2018-09-29T11:07:48.020Z,91.70
2018-09-29T11:10:16.477Z,91.60
2018-09-29T11:12:44.905Z,92.40
2018-09-29T11:15:13.378Z,91.10
2018-09-29T11:17:41.807Z,91.30
2018-09-29T11:20:10.300Z,89.60
2018-09-29T11:22:38.878Z,90.30
2018-09-29T11:25:07.414Z,90.50
2018-09-29T11:27:35.898Z,90.30
2018-09-29T11:30:04.484Z,89.40
2018-09-29T11:32:32.989Z,90.90
2018-09-29T11:35:01.559Z,90.80
2018-09-29T11:37:30.011Z,90.70
2018-09-29T11:39:58.555Z,90.40
2018-09-29T11:42:27.021Z,91.10
2018-09-29T11:47:43.471Z,90.10
2018-09-29T11:50:12.003Z,87.10
2018-09-29T11:52:40.484Z,85.60
2018-09-29T11:55:09.037Z,89.30
2018-09-29T11:57:37.571Z,90.30
2018-09-29T12:00:06.714Z,88.40
2018-09-29T12:02:39.397Z,89.10
2018-09-29T12:05:08.818Z,89.50
2018-09-29T12:07:37.411Z,89.50
2018-09-29T12:10:06.266Z,85.00
2018-09-29T12:12:34.766Z,88.30
2018-09-29T12:15:03.378Z,89.30
2018-09-29T12:17:31.881Z,88.30
2018-09-29T12:20:00.447Z,85.20
2018-09-29T12:22:28.976Z,86.60
2018-09-29T12:24:57.459Z,88.50
2018-09-29T12:27:25.949Z,88.70
2018-09-29T12:29:54.478Z,85.50
2018-09-29T12:32:22.929Z,87.40
2018-09-29T12:34:51.527Z,88.00
2018-09-29T12:37:20.071Z,87.00
2018-09-29T12:39:48.595Z,84.70
2018-09-29T12:42:17.154Z,85.50
2018-09-29T12:44:46.672Z,85.40
2018-09-29T12:47:15.185Z,86.40
2018-09-29T12:49:43.724Z,85.20
2018-09-29T12:52:12.862Z,86.90
2018-09-29T12:54:41.373Z,84.70
2018-09-29T12:57:09.907Z,85.20
2018-09-29T12:59:38.417Z,84.30
2018-09-29T13:02:07.598Z,85.00
2018-09-29T13:04:36.135Z,86.40
2018-09-29T13:07:07.993Z,85.50
2018-09-29T13:09:36.518Z,84.10
2018-09-29T13:12:06.960Z,82.20
2018-09-29T13:14:35.535Z,83.30
2018-09-29T13:17:04.958Z,84.60
2018-09-29T13:19:34.818Z,84.30
2018-09-29T13:22:04.350Z,84.30
2018-09-29T13:24:32.871Z,84.90
2018-09-29T13:27:01.683Z,85.60
2018-09-29T13:29:30.503Z,84.20
2018-09-29T13:31:59.063Z,83.50
2018-09-29T13:34:27.534Z,85.20
2018-09-29T13:36:56.087Z,84.50
2018-09-29T13:39:24.587Z,85.70
2018-09-29T13:41:53.169Z,85.00
2018-09-29T13:44:21.809Z,84.50
2018-09-29T13:46:50.396Z,83.60
2018-09-29T13:49:18.891Z,85.10
2018-09-29T13:51:47.386Z,84.60
2018-09-29T13:54:16.179Z,84.50
2018-09-29T13:56:44.720Z,83.80
2018-09-29T13:59:13.196Z,84.30
2018-09-29T14:01:41.691Z,83.80
2018-09-29T14:04:10.154Z,85.30
2018-09-29T14:06:38.641Z,85.60
2018-09-29T14:09:09.204Z,85.50
2018-09-29T14:11:37.865Z,86.80
2018-09-29T14:14:09.672Z,85.70
2018-09-29T14:16:38.268Z,85.80
2018-09-29T14:19:06.865Z,84.30
2018-09-29T14:21:35.365Z,85.30
2018-09-29T14:24:03.897Z,84.40
2018-09-29T14:26:32.394Z,84.80
2018-09-29T14:29:01.042Z,85.90
2018-09-29T14:31:29.542Z,85.80
2018-09-29T14:33:58.147Z,86.40
2018-09-29T14:36:27.004Z,86.50
2018-09-29T14:38:55.736Z,86.00
2018-09-29T14:41:24.230Z,85.20
2018-09-29T14:43:53.205Z,87.40
2018-09-29T14:46:21.749Z,85.30
2018-09-29T14:48:50.376Z,84.70
2018-09-29T14:51:18.894Z,86.00
2018-09-29T14:53:47.383Z,84.90
2018-09-29T14:56:15.887Z,83.80
2018-09-29T14:58:45.156Z,85.90
2018-09-29T15:01:13.674Z,86.20
2018-09-29T15:03:42.448Z,85.30
2018-09-29T15:06:10.976Z,86.80
2018-09-29T15:08:39.469Z,87.00
2018-09-29T15:11:08.477Z,86.60
2018-09-29T15:13:36.961Z,86.90
2018-09-29T15:16:05.426Z,85.00
2018-09-29T15:18:33.972Z,84.90
2018-09-29T15:21:02.984Z,85.90
2018-09-29T15:23:32.950Z,85.90
2018-09-29T15:26:01.676Z,85.00
2018-09-29T15:28:30.356Z,85.40
2018-09-29T15:30:58.910Z,84.80
2018-09-29T15:33:28.897Z,84.20
2018-09-29T15:35:57.458Z,85.40
2018-09-29T15:38:26.137Z,86.10
2018-09-29T15:40:54.612Z,86.40
2018-09-29T15:43:23.326Z,86.80
2018-09-29T15:45:51.966Z,85.80
2018-09-29T15:48:20.436Z,85.10
2018-09-29T15:50:48.940Z,85.80
2018-09-29T15:53:17.678Z,84.20
2018-09-29T15:55:46.257Z,84.20
2018-09-29T15:58:14.788Z,83.30
2018-09-29T16:00:43.260Z,83.60
2018-09-29T16:03:11.791Z,84.20
2018-09-29T16:05:40.301Z,84.20
2018-09-29T16:08:09.175Z,82.70
2018-09-29T16:10:37.674Z,84.10
2018-09-29T16:13:06.168Z,84.00
2018-09-29T16:15:35.560Z,82.50
2018-09-29T16:18:04.474Z,82.80
2018-09-29T16:20:32.966Z,83.70
2018-09-29T16:23:01.419Z,82.90
2018-09-29T16:25:29.914Z,83.50
2018-09-29T16:27:58.409Z,83.50
2018-09-29T16:30:26.894Z,83.00
2018-09-29T16:32:55.396Z,83.50
2018-09-29T16:35:23.902Z,83.60
2018-09-29T16:37:52.453Z,84.20
2018-09-29T16:40:21.978Z,84.70
2018-09-29T16:42:50.620Z,84.40
2018-09-29T16:45:19.450Z,85.30
2018-09-29T16:47:48.019Z,85.40
2018-09-29T16:50:16.719Z,86.20
2018-09-29T16:52:46.869Z,86.40
2018-09-29T16:55:15.370Z,86.90
2018-09-29T16:57:44.092Z,87.10
2018-09-29T17:00:12.659Z,87.10
2018-09-29T17:02:41.141Z,87.70
2018-09-29T17:05:09.712Z,87.30
2018-09-29T17:07:38.256Z,87.30
2018-09-29T17:10:06.811Z,88.60
2018-09-29T17:12:35.337Z,89.70
2018-09-29T17:15:06.222Z,90.60
2018-09-29T17:17:35.057Z,91.10
2018-09-29T17:20:03.800Z,91.60
2018-09-29T17:22:32.353Z,91.80
2018-09-29T17:25:00.949Z,91.90
2018-09-29T17:27:29.491Z,92.30
2018-09-29T17:29:57.979Z,92.20
2018-09-29T17:32:26.580Z,92.30
2018-09-29T17:34:55.837Z,92.50
2018-09-29T17:37:24.595Z,92.60
2018-09-29T17:40:05.506Z,92.50
2018-09-29T17:42:34.040Z,92.80
2018-09-29T17:45:03.551Z,93.20
2018-09-29T17:47:32.057Z,93.60
2018-09-29T17:50:01.770Z,93.20
2018-09-29T17:52:30.709Z,93.00
2018-09-29T17:55:24.155Z,93.20
2018-09-29T17:57:53.472Z,93.30
2018-09-29T18:00:22.376Z,93.40
2018-09-29T18:02:50.957Z,93.60
2018-09-29T18:05:19.560Z,94.90
2018-09-29T18:07:48.078Z,96.10
2018-09-29T18:10:17.209Z,96.30
2018-09-29T18:12:45.771Z,96.50
2018-09-29T18:15:14.358Z,96.90
2018-09-29T18:17:42.967Z,97.10
2018-09-29T18:20:11.642Z,97.20
2018-09-29T18:22:40.304Z,97.30
2018-09-29T18:25:08.790Z,97.60
2018-09-29T18:27:37.336Z,97.60
2018-09-29T18:30:06.474Z,96.80
2018-09-29T18:32:35.076Z,96.80
2018-09-29T18:35:03.640Z,96.70
2018-09-29T18:37:32.249Z,96.30
2018-09-29T18:40:00.869Z,96.50
2018-09-29T18:42:37.255Z,96.80
2018-09-29T18:45:05.954Z,97.60
2018-09-29T18:47:35.665Z,98.40
2018-09-29T18:50:04.198Z,99.10
2018-09-29T18:52:32.750Z,99.10
2018-09-29T18:55:01.744Z,99.30
2018-09-29T18:57:30.313Z,99.50
2018-09-29T18:59:58.832Z,99.80
2018-09-29T19:02:27.404Z,99.90
2018-09-29T19:04:56.082Z,99.90
2018-09-29T19:07:24.666Z,99.90
2018-09-29T19:09:53.138Z,99.90
2018-09-29T19:12:21.606Z,99.90
2018-09-29T19:14:50.125Z,99.90
2018-09-29T19:17:18.738Z,99.70
2018-09-29T19:19:48.402Z,99.50
2018-09-29T19:22:16.889Z,99.90
2018-09-29T19:24:45.366Z,99.90
2018-09-29T19:27:13.848Z,99.90
2018-09-29T19:29:42.335Z,99.90
2018-09-29T19:32:10.898Z,99.90
2018-09-29T19:34:39.407Z,99.90
2018-09-29T19:37:07.866Z,99.90
2018-09-29T19:39:36.424Z,99.90
2018-09-29T19:42:04.879Z,99.90
2018-09-29T19:44:33.397Z,99.90
2018-09-29T19:47:01.865Z,99.90
2018-09-29T19:49:30.338Z,99.90
2018-09-29T19:51:58.847Z,99.90
2018-09-29T19:54:27.296Z,99.90
2018-09-29T19:56:55.760Z,99.90
2018-09-29T19:59:24.232Z,99.90
2018-09-29T20:01:52.722Z,99.90
2018-09-29T20:04:21.201Z,99.90
2018-09-29T20:06:49.670Z,99.90
2018-09-29T20:09:18.378Z,99.90
2018-09-29T20:11:46.870Z,99.90
2018-09-29T20:14:15.353Z,99.90
2018-09-29T20:16:44.431Z,99.90
2018-09-29T20:19:12.863Z,99.90
2018-09-29T20:21:41.376Z,99.90
2018-09-29T20:24:09.908Z,99.90
2018-09-29T20:26:38.441Z,99.90
2018-09-29T20:29:06.923Z,99.90
2018-09-29T20:31:40.392Z,99.90
2018-09-29T20:34:08.930Z,99.90
2018-09-29T20:36:37.976Z,99.90
2018-09-29T20:39:09.348Z,99.90
2018-09-29T20:41:37.830Z,99.90
2018-09-29T20:44:06.316Z,99.90
2018-09-29T20:46:35.264Z,99.90
2018-09-29T20:49:03.775Z,99.90
2018-09-29T20:51:32.314Z,99.90
2018-09-29T20:54:00.797Z,99.90
2018-09-29T20:56:29.282Z,99.90
2018-09-29T20:58:57.785Z,99.90
2018-09-29T21:01:26.318Z,99.90
2018-09-29T21:03:54.832Z,99.90
2018-09-29T21:06:23.290Z,99.90
2018-09-29T21:08:51.747Z,99.90
2018-09-29T21:11:20.260Z,99.90
2018-09-29T21:13:48.865Z,99.90
2018-09-29T21:16:17.318Z,99.90
2018-09-29T21:18:45.783Z,99.90
2018-09-29T21:21:14.265Z,99.90
2018-09-29T21:23:42.809Z,99.90
2018-09-29T21:26:11.355Z,99.90
2018-09-29T21:28:39.794Z,99.90
2018-09-29T21:31:08.303Z,99.90
2018-09-29T21:33:36.772Z,99.90
2018-09-29T21:36:05.358Z,99.90
2018-09-29T21:38:33.877Z,99.90
2018-09-29T21:41:02.340Z,99.90
2018-09-29T21:43:30.788Z,99.90
2018-09-29T21:45:59.257Z,99.90
2018-09-29T21:48:27.710Z,99.90
2018-09-29T21:50:56.222Z,99.90
2018-09-29T21:53:24.683Z,99.90
2018-09-29T21:55:53.143Z,99.90
2018-09-29T21:58:21.615Z,99.90
2018-09-29T22:00:50.544Z,99.90
2018-09-29T22:03:19.017Z,99.90
2018-09-29T22:05:47.484Z,99.90
2018-09-29T22:08:15.989Z,99.90
2018-09-29T22:10:44.693Z,99.90
2018-09-29T22:13:13.134Z,99.90
2018-09-29T22:15:41.602Z,99.90
2018-09-29T22:18:10.063Z,99.90
2018-09-29T22:20:38.533Z,99.90
2018-09-29T22:23:06.974Z,99.90
2018-09-29T22:25:35.427Z,99.90
2018-09-29T22:28:03.888Z,99.90
2018-09-29T22:30:32.368Z,99.90
2018-09-29T22:33:00.819Z,99.90
2018-09-29T22:35:29.437Z,99.90
2018-09-29T22:37:57.898Z,99.90
2018-09-29T22:40:26.763Z,99.90
2018-09-29T22:42:55.260Z,99.90
2018-09-29T22:45:23.742Z,99.90
2018-09-29T22:47:52.194Z,99.90
2018-09-29T22:50:20.642Z,99.90
2018-09-29T22:52:49.151Z,99.90
2018-09-29T22:55:17.602Z,99.90
2018-09-29T22:57:46.079Z,99.90
2018-09-29T23:00:14.538Z,99.90
2018-09-29T23:02:42.997Z,99.90
2018-09-29T23:05:11.429Z,99.90
2018-09-29T23:07:39.887Z,99.90
2018-09-29T23:10:08.369Z,99.90
2018-09-29T23:12:36.814Z,99.90
2018-09-29T23:15:05.270Z,99.90
2018-09-29T23:17:33.877Z,99.90
2018-09-29T23:20:02.926Z,99.90
2018-09-29T23:22:31.412Z,99.90
2018-09-29T23:24:59.854Z,99.90
2018-09-29T23:27:28.334Z,99.90
2018-09-29T23:29:56.786Z,99.90
2018-09-29T23:32:25.259Z,99.90
2018-09-29T23:34:53.722Z,99.90
2018-09-29T23:37:22.184Z,99.90
2018-09-29T23:39:50.679Z,99.90
2018-09-29T23:42:19.152Z,99.90
2018-09-29T23:44:47.675Z,99.90
2018-09-29T23:47:16.122Z,99.90
2018-09-29T23:49:44.595Z,99.90
2018-09-29T23:52:13.035Z,99.90
2018-09-29T23:54:41.507Z,99.90
2018-09-29T23:57:10.227Z,99.90
2018-09-29T23:59:38.719Z,99.90
